Terminal Aerodrome Forecast
Issued by NWS

Home | Current Version | Previous Version | Text Only | Print | Product List | Glossary On
Versions: 1 2 3 4 5 6 7 8 9 10 11 12 13 14
000
FTUS45 KTFX 201700
TAFBZN
TAF
KBZN 201734Z 2018/2118 VRB04KT P6SM FEW100 SCT150
     FM202300 VRB06KT P6SM VCTS SCT090CB BKN120
      TEMPO 2023/2101 35012G18KT
     FM210200 VRB04KT P6SM -SHRA SCT040 BKN090=

USA.gov is the U.S. government's official web portal to all federal, state and local government web resources and services.